sensor_id;sensor_type;location;lat;lon;timestamp;P1;durP1;ratioP1;P2;durP2;ratioP2
7835;SDS011;3963;42.658;23.298;2023-03-16T00:01:57;1.47;;;1.17;;
7835;SDS011;3963;42.658;23.298;2023-03-16T00:04:24;1.40;;;1.30;;
7835;SDS011;3963;42.658;23.298;2023-03-16T00:06:51;1.20;;;1.10;;
7835;SDS011;3963;42.658;23.298;2023-03-16T00:09:17;1.17;;;1.07;;
7835;SDS011;3963;42.658;23.298;2023-03-16T00:11:46;1.33;;;1.23;;
7835;SDS011;3963;42.658;23.298;2023-03-16T00:14:12;1.40;;;1.30;;
7835;SDS011;3963;42.658;23.298;2023-03-16T00:16:39;2.00;;;1.10;;
7835;SDS011;3963;42.658;23.298;2023-03-16T00:19:06;1.00;;;1.00;;
7835;SDS011;3963;42.658;23.298;2023-03-16T00:21:34;1.30;;;1.20;;
7835;SDS011;3963;42.658;23.298;2023-03-16T00:24:00;1.60;;;1.40;;
7835;SDS011;3963;42.658;23.298;2023-03-16T00:26:27;1.40;;;1.30;;
7835;SDS011;3963;42.658;23.298;2023-03-16T00:28:57;1.30;;;1.20;;
7835;SDS011;3963;42.658;23.298;2023-03-16T00:31:24;1.50;;;1.40;;
7835;SDS011;3963;42.658;23.298;2023-03-16T00:33:51;1.60;;;1.47;;
7835;SDS011;3963;42.658;23.298;2023-03-16T00:36:18;1.57;;;1.40;;
7835;SDS011;3963;42.658;23.298;2023-03-16T00:38:46;1.30;;;1.20;;
7835;SDS011;3963;42.658;23.298;2023-03-16T00:41:14;1.40;;;1.30;;
7835;SDS011;3963;42.658;23.298;2023-03-16T00:43:41;1.67;;;1.40;;
7835;SDS011;3963;42.658;23.298;2023-03-16T00:46:11;1.50;;;1.40;;
7835;SDS011;3963;42.658;23.298;2023-03-16T00:48:40;1.63;;;1.53;;
7835;SDS011;3963;42.658;23.298;2023-03-16T00:51:08;1.97;;;1.53;;
7835;SDS011;3963;42.658;23.298;2023-03-16T00:53:39;1.60;;;1.50;;
7835;SDS011;3963;42.658;23.298;2023-03-16T00:56:08;1.40;;;1.30;;
7835;SDS011;3963;42.658;23.298;2023-03-16T00:58:35;1.37;;;1.27;;
7835;SDS011;3963;42.658;23.298;2023-03-16T01:01:03;1.30;;;1.13;;
7835;SDS011;3963;42.658;23.298;2023-03-16T01:03:33;1.50;;;1.27;;
7835;SDS011;3963;42.658;23.298;2023-03-16T01:06:02;1.10;;;1.10;;
7835;SDS011;3963;42.658;23.298;2023-03-16T01:08:30;1.57;;;1.40;;
7835;SDS011;3963;42.658;23.298;2023-03-16T01:11:00;1.40;;;1.30;;
7835;SDS011;3963;42.658;23.298;2023-03-16T01:13:28;1.40;;;1.30;;
7835;SDS011;3963;42.658;23.298;2023-03-16T01:15:56;1.37;;;1.20;;
7835;SDS011;3963;42.658;23.298;2023-03-16T01:18:23;1.60;;;1.30;;
7835;SDS011;3963;42.658;23.298;2023-03-16T01:20:52;1.20;;;1.10;;
7835;SDS011;3963;42.658;23.298;2023-03-16T01:23:19;1.57;;;1.47;;
7835;SDS011;3963;42.658;23.298;2023-03-16T01:25:47;1.40;;;1.30;;
7835;SDS011;3963;42.658;23.298;2023-03-16T01:28:17;1.30;;;1.20;;
7835;SDS011;3963;42.658;23.298;2023-03-16T01:30:44;1.17;;;1.07;;
7835;SDS011;3963;42.658;23.298;2023-03-16T01:33:11;1.40;;;1.03;;
7835;SDS011;3963;42.658;23.298;2023-03-16T01:35:38;1.27;;;1.17;;
7835;SDS011;3963;42.658;23.298;2023-03-16T01:38:06;1.50;;;1.20;;
7835;SDS011;3963;42.658;23.298;2023-03-16T01:40:33;1.30;;;1.20;;
7835;SDS011;3963;42.658;23.298;2023-03-16T01:43:02;1.40;;;1.20;;
7835;SDS011;3963;42.658;23.298;2023-03-16T01:48:54;1.10;;;1.00;;
7835;SDS011;3963;42.658;23.298;2023-03-16T01:51:26;1.40;;;1.30;;
7835;SDS011;3963;42.658;23.298;2023-03-16T01:54:00;1.30;;;1.20;;
7835;SDS011;3963;42.658;23.298;2023-03-16T01:56:30;1.47;;;1.20;;
7835;SDS011;3963;42.658;23.298;2023-03-16T01:59:01;1.37;;;1.27;;
7835;SDS011;3963;42.658;23.298;2023-03-16T02:01:33;1.60;;;1.37;;
7835;SDS011;3963;42.658;23.298;2023-03-16T02:04:02;1.40;;;1.30;;
7835;SDS011;3963;42.658;23.298;2023-03-16T02:06:38;1.73;;;1.33;;
7835;SDS011;3963;42.658;23.298;2023-03-16T02:09:07;1.87;;;1.60;;
7835;SDS011;3963;42.658;23.298;2023-03-16T02:11:35;1.70;;;1.60;;
7835;SDS011;3963;42.658;23.298;2023-03-16T02:14:05;1.70;;;1.43;;
7835;SDS011;3963;42.658;23.298;2023-03-16T02:16:34;1.40;;;1.30;;
7835;SDS011;3963;42.658;23.298;2023-03-16T02:19:01;1.40;;;1.30;;
7835;SDS011;3963;42.658;23.298;2023-03-16T02:21:32;1.37;;;1.27;;
7835;SDS011;3963;42.658;23.298;2023-03-16T02:24:08;2.20;;;1.30;;
7835;SDS011;3963;42.658;23.298;2023-03-16T02:26:36;1.60;;;1.50;;
7835;SDS011;3963;42.658;23.298;2023-03-16T02:29:17;1.70;;;1.40;;
7835;SDS011;3963;42.658;23.298;2023-03-16T02:31:55;1.30;;;1.20;;
7835;SDS011;3963;42.658;23.298;2023-03-16T02:34:24;2.23;;;1.20;;
7835;SDS011;3963;42.658;23.298;2023-03-16T02:36:52;1.33;;;1.23;;
7835;SDS011;3963;42.658;23.298;2023-03-16T02:39:20;1.27;;;1.17;;
7835;SDS011;3963;42.658;23.298;2023-03-16T02:41:47;1.70;;;1.23;;
7835;SDS011;3963;42.658;23.298;2023-03-16T02:44:14;1.63;;;1.30;;
7835;SDS011;3963;42.658;23.298;2023-03-16T02:46:48;1.20;;;1.10;;
7835;SDS011;3963;42.658;23.298;2023-03-16T02:49:19;1.47;;;1.37;;
7835;SDS011;3963;42.658;23.298;2023-03-16T02:51:50;1.33;;;1.23;;
7835;SDS011;3963;42.658;23.298;2023-03-16T02:54:17;1.23;;;1.13;;
7835;SDS011;3963;42.658;23.298;2023-03-16T02:56:44;1.03;;;1.00;;
7835;SDS011;3963;42.658;23.298;2023-03-16T02:59:11;1.83;;;1.20;;
7835;SDS011;3963;42.658;23.298;2023-03-16T03:01:38;1.17;;;1.07;;
7835;SDS011;3963;42.658;23.298;2023-03-16T03:04:05;1.17;;;1.07;;
7835;SDS011;3963;42.658;23.298;2023-03-16T03:06:34;1.23;;;1.10;;
7835;SDS011;3963;42.658;23.298;2023-03-16T03:09:01;1.40;;;1.30;;
7835;SDS011;3963;42.658;23.298;2023-03-16T03:11:29;1.50;;;1.30;;
7835;SDS011;3963;42.658;23.298;2023-03-16T03:13:55;1.50;;;1.10;;
7835;SDS011;3963;42.658;23.298;2023-03-16T03:16:22;1.57;;;1.13;;
7835;SDS011;3963;42.658;23.298;2023-03-16T03:18:49;1.30;;;1.20;;
7835;SDS011;3963;42.658;23.298;2023-03-16T03:21:17;1.60;;;1.33;;
7835;SDS011;3963;42.658;23.298;2023-03-16T03:23:46;1.40;;;1.30;;
7835;SDS011;3963;42.658;23.298;2023-03-16T03:26:13;1.70;;;1.30;;
7835;SDS011;3963;42.658;23.298;2023-03-16T03:28:40;1.50;;;1.40;;
7835;SDS011;3963;42.658;23.298;2023-03-16T03:31:11;1.40;;;1.30;;
7835;SDS011;3963;42.658;23.298;2023-03-16T03:33:39;1.20;;;1.10;;
7835;SDS011;3963;42.658;23.298;2023-03-16T03:36:06;1.27;;;1.17;;
7835;SDS011;3963;42.658;23.298;2023-03-16T03:38:33;1.13;;;1.03;;
7835;SDS011;3963;42.658;23.298;2023-03-16T03:41:01;1.60;;;1.10;;
7835;SDS011;3963;42.658;23.298;2023-03-16T03:43:28;1.47;;;1.37;;
7835;SDS011;3963;42.658;23.298;2023-03-16T03:45:55;1.30;;;1.20;;
7835;SDS011;3963;42.658;23.298;2023-03-16T03:48:23;1.87;;;1.30;;
7835;SDS011;3963;42.658;23.298;2023-03-16T03:50:50;1.10;;;1.03;;
7835;SDS011;3963;42.658;23.298;2023-03-16T03:53:16;1.47;;;1.37;;
7835;SDS011;3963;42.658;23.298;2023-03-16T03:55:44;1.00;;;1.00;;
7835;SDS011;3963;42.658;23.298;2023-03-16T03:58:13;1.37;;;1.20;;
7835;SDS011;3963;42.658;23.298;2023-03-16T04:00:39;1.63;;;1.30;;
7835;SDS011;3963;42.658;23.298;2023-03-16T04:03:06;1.50;;;1.40;;
7835;SDS011;3963;42.658;23.298;2023-03-16T04:05:33;1.87;;;1.20;;
7835;SDS011;3963;42.658;23.298;2023-03-16T04:08:00;1.40;;;1.20;;
7835;SDS011;3963;42.658;23.298;2023-03-16T04:10:27;0.87;;;0.87;;
7835;SDS011;3963;42.658;23.298;2023-03-16T04:12:55;1.73;;;1.30;;
7835;SDS011;3963;42.658;23.298;2023-03-16T04:15:24;2.43;;;1.70;;
7835;SDS011;3963;42.658;23.298;2023-03-16T04:17:51;1.60;;;1.30;;
7835;SDS011;3963;42.658;23.298;2023-03-16T04:20:19;1.40;;;1.30;;
7835;SDS011;3963;42.658;23.298;2023-03-16T04:22:46;1.53;;;1.03;;
7835;SDS011;3963;42.658;23.298;2023-03-16T04:25:14;0.90;;;0.90;;
7835;SDS011;3963;42.658;23.298;2023-03-16T04:27:42;1.20;;;1.10;;
7835;SDS011;3963;42.658;23.298;2023-03-16T04:30:11;1.33;;;1.00;;
7835;SDS011;3963;42.658;23.298;2023-03-16T04:32:41;1.10;;;1.10;;
7835;SDS011;3963;42.658;23.298;2023-03-16T04:35:08;1.40;;;1.20;;
7835;SDS011;3963;42.658;23.298;2023-03-16T04:37:35;1.20;;;1.10;;
7835;SDS011;3963;42.658;23.298;2023-03-16T04:40:02;1.00;;;1.00;;
7835;SDS011;3963;42.658;23.298;2023-03-16T04:42:35;0.93;;;0.93;;
7835;SDS011;3963;42.658;23.298;2023-03-16T04:45:02;1.67;;;1.10;;
7835;SDS011;3963;42.658;23.298;2023-03-16T04:47:30;1.20;;;1.10;;
7835;SDS011;3963;42.658;23.298;2023-03-16T04:49:59;1.23;;;1.13;;
7835;SDS011;3963;42.658;23.298;2023-03-16T04:52:26;1.10;;;1.00;;
7835;SDS011;3963;42.658;23.298;2023-03-16T04:54:53;1.20;;;1.10;;
7835;SDS011;3963;42.658;23.298;2023-03-16T04:57:20;1.23;;;1.13;;
7835;SDS011;3963;42.658;23.298;2023-03-16T04:59:47;1.57;;;1.47;;
7835;SDS011;3963;42.658;23.298;2023-03-16T05:02:14;2.40;;;1.37;;
7835;SDS011;3963;42.658;23.298;2023-03-16T05:04:41;1.20;;;1.10;;
7835;SDS011;3963;42.658;23.298;2023-03-16T05:07:10;1.30;;;1.20;;
7835;SDS011;3963;42.658;23.298;2023-03-16T05:09:37;1.07;;;1.03;;
7835;SDS011;3963;42.658;23.298;2023-03-16T05:12:04;2.27;;;1.40;;
7835;SDS011;3963;42.658;23.298;2023-03-16T05:14:31;2.40;;;1.50;;
7835;SDS011;3963;42.658;23.298;2023-03-16T05:17:00;1.37;;;1.13;;
7835;SDS011;3963;42.658;23.298;2023-03-16T05:19:27;1.50;;;1.40;;
7835;SDS011;3963;42.658;23.298;2023-03-16T05:21:55;1.97;;;1.50;;
7835;SDS011;3963;42.658;23.298;2023-03-16T05:24:25;1.27;;;1.10;;
7835;SDS011;3963;42.658;23.298;2023-03-16T05:26:52;1.37;;;1.23;;
7835;SDS011;3963;42.658;23.298;2023-03-16T05:29:19;1.40;;;1.30;;
7835;SDS011;3963;42.658;23.298;2023-03-16T05:31:47;1.50;;;1.40;;
7835;SDS011;3963;42.658;23.298;2023-03-16T05:34:14;2.10;;;1.70;;
7835;SDS011;3963;42.658;23.298;2023-03-16T05:36:41;1.70;;;1.60;;
7835;SDS011;3963;42.658;23.298;2023-03-16T05:39:09;1.63;;;1.30;;
7835;SDS011;3963;42.658;23.298;2023-03-16T05:41:37;1.77;;;1.33;;
7835;SDS011;3963;42.658;23.298;2023-03-16T05:44:04;1.77;;;1.50;;
7835;SDS011;3963;42.658;23.298;2023-03-16T05:46:31;2.37;;;1.60;;
7835;SDS011;3963;42.658;23.298;2023-03-16T05:48:58;1.50;;;1.40;;
7835;SDS011;3963;42.658;23.298;2023-03-16T05:51:25;2.17;;;1.80;;
7835;SDS011;3963;42.658;23.298;2023-03-16T05:53:52;1.60;;;1.43;;
7835;SDS011;3963;42.658;23.298;2023-03-16T05:56:21;1.50;;;1.40;;
7835;SDS011;3963;42.658;23.298;2023-03-16T05:58:49;1.53;;;1.43;;
7835;SDS011;3963;42.658;23.298;2023-03-16T06:01:17;2.67;;;1.37;;
7835;SDS011;3963;42.658;23.298;2023-03-16T06:03:44;1.60;;;1.50;;
7835;SDS011;3963;42.658;23.298;2023-03-16T06:06:11;1.97;;;1.60;;
7835;SDS011;3963;42.658;23.298;2023-03-16T06:08:38;1.50;;;1.40;;
7835;SDS011;3963;42.658;23.298;2023-03-16T06:11:05;1.43;;;1.33;;
7835;SDS011;3963;42.658;23.298;2023-03-16T06:13:32;2.80;;;1.60;;
7835;SDS011;3963;42.658;23.298;2023-03-16T06:16:00;2.07;;;1.80;;
7835;SDS011;3963;42.658;23.298;2023-03-16T06:18:27;1.70;;;1.60;;
7835;SDS011;3963;42.658;23.298;2023-03-16T06:20:54;1.93;;;1.40;;
7835;SDS011;3963;42.658;23.298;2023-03-16T06:23:20;1.87;;;1.40;;
7835;SDS011;3963;42.658;23.298;2023-03-16T06:25:47;1.50;;;1.30;;
7835;SDS011;3963;42.658;23.298;2023-03-16T06:28:14;1.83;;;1.27;;
7835;SDS011;3963;42.658;23.298;2023-03-16T06:30:41;1.80;;;1.60;;
7835;SDS011;3963;42.658;23.298;2023-03-16T06:33:09;2.60;;;1.80;;
7835;SDS011;3963;42.658;23.298;2023-03-16T06:35:36;1.80;;;1.60;;
7835;SDS011;3963;42.658;23.298;2023-03-16T06:38:03;3.70;;;1.90;;
7835;SDS011;3963;42.658;23.298;2023-03-16T06:40:30;2.00;;;1.63;;
7835;SDS011;3963;42.658;23.298;2023-03-16T06:42:56;2.23;;;1.57;;
7835;SDS011;3963;42.658;23.298;2023-03-16T06:45:23;4.73;;;1.87;;
7835;SDS011;3963;42.658;23.298;2023-03-16T06:47:50;2.10;;;1.40;;
7835;SDS011;3963;42.658;23.298;2023-03-16T06:50:18;2.17;;;1.60;;
7835;SDS011;3963;42.658;23.298;2023-03-16T06:52:45;1.80;;;1.53;;
7835;SDS011;3963;42.658;23.298;2023-03-16T06:55:12;2.67;;;1.90;;
7835;SDS011;3963;42.658;23.298;2023-03-16T06:57:39;2.83;;;2.23;;
7835;SDS011;3963;42.658;23.298;2023-03-16T07:00:06;2.60;;;1.70;;
7835;SDS011;3963;42.658;23.298;2023-03-16T07:02:35;1.97;;;1.60;;
7835;SDS011;3963;42.658;23.298;2023-03-16T07:05:03;1.60;;;1.40;;
7835;SDS011;3963;42.658;23.298;2023-03-16T07:07:32;2.23;;;1.77;;
7835;SDS011;3963;42.658;23.298;2023-03-16T07:09:59;2.07;;;1.70;;
7835;SDS011;3963;42.658;23.298;2023-03-16T07:12:26;1.90;;;1.70;;
7835;SDS011;3963;42.658;23.298;2023-03-16T07:14:52;2.33;;;1.80;;
7835;SDS011;3963;42.658;23.298;2023-03-16T07:17:19;3.57;;;1.60;;
7835;SDS011;3963;42.658;23.298;2023-03-16T07:19:46;2.07;;;1.87;;
7835;SDS011;3963;42.658;23.298;2023-03-16T07:22:13;4.07;;;2.13;;
7835;SDS011;3963;42.658;23.298;2023-03-16T07:24:41;2.67;;;1.80;;
7835;SDS011;3963;42.658;23.298;2023-03-16T07:27:08;4.17;;;2.03;;
7835;SDS011;3963;42.658;23.298;2023-03-16T07:29:35;2.00;;;1.80;;
7835;SDS011;3963;42.658;23.298;2023-03-16T07:32:01;2.47;;;1.70;;
7835;SDS011;3963;42.658;23.298;2023-03-16T07:34:29;4.43;;;2.00;;
7835;SDS011;3963;42.658;23.298;2023-03-16T07:36:55;1.93;;;1.70;;
7835;SDS011;3963;42.658;23.298;2023-03-16T07:39:22;2.43;;;1.70;;
7835;SDS011;3963;42.658;23.298;2023-03-16T07:41:50;3.17;;;2.10;;
7835;SDS011;3963;42.658;23.298;2023-03-16T07:44:17;2.20;;;2.00;;
7835;SDS011;3963;42.658;23.298;2023-03-16T07:46:44;2.00;;;1.73;;
7835;SDS011;3963;42.658;23.298;2023-03-16T07:49:10;2.83;;;2.23;;
7835;SDS011;3963;42.658;23.298;2023-03-16T07:51:37;2.67;;;2.30;;
7835;SDS011;3963;42.658;23.298;2023-03-16T07:54:05;2.73;;;1.90;;
7835;SDS011;3963;42.658;23.298;2023-03-16T07:56:31;3.17;;;2.20;;
7835;SDS011;3963;42.658;23.298;2023-03-16T07:59:00;4.00;;;2.30;;
7835;SDS011;3963;42.658;23.298;2023-03-16T08:01:27;6.03;;;2.87;;
7835;SDS011;3963;42.658;23.298;2023-03-16T08:03:54;4.03;;;2.27;;
7835;SDS011;3963;42.658;23.298;2023-03-16T08:06:21;4.20;;;2.57;;
7835;SDS011;3963;42.658;23.298;2023-03-16T08:08:49;2.73;;;2.00;;
7835;SDS011;3963;42.658;23.298;2023-03-16T08:11:16;3.67;;;2.33;;
7835;SDS011;3963;42.658;23.298;2023-03-16T08:13:47;5.23;;;2.40;;
7835;SDS011;3963;42.658;23.298;2023-03-16T08:16:19;2.93;;;2.20;;
7835;SDS011;3963;42.658;23.298;2023-03-16T08:18:46;2.73;;;2.00;;
7835;SDS011;3963;42.658;23.298;2023-03-16T08:21:13;2.43;;;2.20;;
7835;SDS011;3963;42.658;23.298;2023-03-16T08:23:40;3.47;;;2.03;;
7835;SDS011;3963;42.658;23.298;2023-03-16T08:26:08;4.27;;;2.50;;
7835;SDS011;3963;42.658;23.298;2023-03-16T08:28:34;2.27;;;2.07;;
7835;SDS011;3963;42.658;23.298;2023-03-16T08:31:01;3.00;;;2.50;;
7835;SDS011;3963;42.658;23.298;2023-03-16T08:33:29;1.90;;;1.80;;
7835;SDS011;3963;42.658;23.298;2023-03-16T08:35:56;2.17;;;1.97;;
7835;SDS011;3963;42.658;23.298;2023-03-16T08:38:23;2.83;;;2.27;;
7835;SDS011;3963;42.658;23.298;2023-03-16T08:40:50;3.97;;;2.50;;
7835;SDS011;3963;42.658;23.298;2023-03-16T08:43:17;1.90;;;1.70;;
7835;SDS011;3963;42.658;23.298;2023-03-16T08:45:44;3.60;;;1.80;;
7835;SDS011;3963;42.658;23.298;2023-03-16T08:48:12;3.07;;;2.27;;
7835;SDS011;3963;42.658;23.298;2023-03-16T08:50:41;2.30;;;2.07;;
7835;SDS011;3963;42.658;23.298;2023-03-16T08:53:10;3.30;;;2.17;;
7835;SDS011;3963;42.658;23.298;2023-03-16T08:55:38;2.17;;;1.70;;
7835;SDS011;3963;42.658;23.298;2023-03-16T08:58:06;3.20;;;2.37;;
7835;SDS011;3963;42.658;23.298;2023-03-16T09:00:33;2.83;;;2.53;;
7835;SDS011;3963;42.658;23.298;2023-03-16T09:03:00;2.27;;;1.90;;
7835;SDS011;3963;42.658;23.298;2023-03-16T09:05:27;1.93;;;1.40;;
7835;SDS011;3963;42.658;23.298;2023-03-16T09:07:56;3.67;;;2.10;;
7835;SDS011;3963;42.658;23.298;2023-03-16T09:10:23;5.43;;;2.33;;
7835;SDS011;3963;42.658;23.298;2023-03-16T09:12:51;2.03;;;1.80;;
7835;SDS011;3963;42.658;23.298;2023-03-16T09:15:19;3.47;;;2.53;;
7835;SDS011;3963;42.658;23.298;2023-03-16T09:17:46;4.03;;;2.30;;
7835;SDS011;3963;42.658;23.298;2023-03-16T09:20:15;1.97;;;1.70;;
7835;SDS011;3963;42.658;23.298;2023-03-16T09:22:43;2.37;;;1.73;;
7835;SDS011;3963;42.658;23.298;2023-03-16T09:25:11;2.47;;;1.73;;
7835;SDS011;3963;42.658;23.298;2023-03-16T09:27:38;2.67;;;1.80;;
7835;SDS011;3963;42.658;23.298;2023-03-16T09:30:06;3.13;;;2.20;;
7835;SDS011;3963;42.658;23.298;2023-03-16T09:32:34;7.20;;;2.33;;
7835;SDS011;3963;42.658;23.298;2023-03-16T09:35:01;4.27;;;2.10;;
7835;SDS011;3963;42.658;23.298;2023-03-16T09:37:30;3.00;;;2.37;;
7835;SDS011;3963;42.658;23.298;2023-03-16T09:39:57;3.37;;;2.07;;
7835;SDS011;3963;42.658;23.298;2023-03-16T09:42:26;4.07;;;1.90;;
7835;SDS011;3963;42.658;23.298;2023-03-16T09:45:02;2.20;;;1.43;;
7835;SDS011;3963;42.658;23.298;2023-03-16T09:47:39;3.00;;;1.90;;
7835;SDS011;3963;42.658;23.298;2023-03-16T09:50:08;4.97;;;2.80;;
7835;SDS011;3963;42.658;23.298;2023-03-16T09:52:43;3.20;;;2.40;;
7835;SDS011;3963;42.658;23.298;2023-03-16T09:55:18;3.97;;;2.43;;
7835;SDS011;3963;42.658;23.298;2023-03-16T09:57:53;3.80;;;2.60;;
7835;SDS011;3963;42.658;23.298;2023-03-16T10:00:22;2.50;;;2.10;;
7835;SDS011;3963;42.658;23.298;2023-03-16T10:02:56;2.90;;;2.50;;
7835;SDS011;3963;42.658;23.298;2023-03-16T10:05:32;2.20;;;2.00;;
7835;SDS011;3963;42.658;23.298;2023-03-16T10:08:04;2.50;;;2.30;;
7835;SDS011;3963;42.658;23.298;2023-03-16T10:10:41;4.83;;;2.80;;
7835;SDS011;3963;42.658;23.298;2023-03-16T10:13:29;3.20;;;2.10;;
7835;SDS011;3963;42.658;23.298;2023-03-16T10:16:02;5.70;;;2.53;;
7835;SDS011;3963;42.658;23.298;2023-03-16T10:18:34;4.40;;;2.40;;
7835;SDS011;3963;42.658;23.298;2023-03-16T10:21:10;3.00;;;2.40;;
7835;SDS011;3963;42.658;23.298;2023-03-16T10:23:38;3.13;;;2.63;;
7835;SDS011;3963;42.658;23.298;2023-03-16T10:26:08;3.30;;;3.00;;
7835;SDS011;3963;42.658;23.298;2023-03-16T10:28:44;3.30;;;2.70;;
7835;SDS011;3963;42.658;23.298;2023-03-16T10:31:12;4.20;;;3.20;;
7835;SDS011;3963;42.658;23.298;2023-03-16T10:33:42;3.90;;;2.90;;
7835;SDS011;3963;42.658;23.298;2023-03-16T10:36:11;2.93;;;2.63;;
7835;SDS011;3963;42.658;23.298;2023-03-16T10:38:42;2.30;;;2.07;;
7835;SDS011;3963;42.658;23.298;2023-03-16T10:41:20;4.07;;;2.43;;
7835;SDS011;3963;42.658;23.298;2023-03-16T10:43:51;2.67;;;2.17;;
7835;SDS011;3963;42.658;23.298;2023-03-16T10:46:20;4.10;;;2.87;;
7835;SDS011;3963;42.658;23.298;2023-03-16T10:48:50;4.63;;;2.50;;
7835;SDS011;3963;42.658;23.298;2023-03-16T10:51:23;3.27;;;2.80;;
7835;SDS011;3963;42.658;23.298;2023-03-16T10:53:52;4.07;;;3.07;;
7835;SDS011;3963;42.658;23.298;2023-03-16T10:56:22;4.93;;;3.13;;
7835;SDS011;3963;42.658;23.298;2023-03-16T10:58:51;3.73;;;3.20;;
7835;SDS011;3963;42.658;23.298;2023-03-16T11:01:20;2.73;;;2.40;;
7835;SDS011;3963;42.658;23.298;2023-03-16T11:03:49;3.63;;;2.80;;
7835;SDS011;3963;42.658;23.298;2023-03-16T11:06:20;4.00;;;3.10;;
7835;SDS011;3963;42.658;23.298;2023-03-16T11:08:48;3.47;;;2.67;;
7835;SDS011;3963;42.658;23.298;2023-03-16T11:11:20;3.50;;;2.80;;
7835;SDS011;3963;42.658;23.298;2023-03-16T11:13:54;5.20;;;3.60;;
7835;SDS011;3963;42.658;23.298;2023-03-16T11:16:26;5.30;;;3.33;;
7835;SDS011;3963;42.658;23.298;2023-03-16T11:18:57;4.77;;;3.40;;
7835;SDS011;3963;42.658;23.298;2023-03-16T11:21:29;6.83;;;3.60;;
7835;SDS011;3963;42.658;23.298;2023-03-16T11:24:05;6.53;;;4.27;;
7835;SDS011;3963;42.658;23.298;2023-03-16T11:26:41;7.03;;;3.20;;
7835;SDS011;3963;42.658;23.298;2023-03-16T11:29:15;4.70;;;3.20;;
7835;SDS011;3963;42.658;23.298;2023-03-16T11:31:48;4.80;;;3.60;;
7835;SDS011;3963;42.658;23.298;2023-03-16T11:34:18;6.93;;;4.77;;
7835;SDS011;3963;42.658;23.298;2023-03-16T11:36:53;5.43;;;3.73;;
7835;SDS011;3963;42.658;23.298;2023-03-16T11:39:27;6.43;;;5.20;;
7835;SDS011;3963;42.658;23.298;2023-03-16T11:41:59;4.63;;;3.07;;
7835;SDS011;3963;42.658;23.298;2023-03-16T11:44:42;3.77;;;3.10;;
7835;SDS011;3963;42.658;23.298;2023-03-16T11:47:23;3.50;;;3.20;;
7835;SDS011;3963;42.658;23.298;2023-03-16T11:50:04;3.93;;;3.50;;
7835;SDS011;3963;42.658;23.298;2023-03-16T11:52:41;5.10;;;3.53;;
7835;SDS011;3963;42.658;23.298;2023-03-16T11:55:21;3.80;;;3.10;;
7835;SDS011;3963;42.658;23.298;2023-03-16T11:57:58;3.87;;;3.40;;
7835;SDS011;3963;42.658;23.298;2023-03-16T12:00:38;5.10;;;3.50;;
7835;SDS011;3963;42.658;23.298;2023-03-16T12:03:26;5.30;;;3.80;;
7835;SDS011;3963;42.658;23.298;2023-03-16T12:06:07;3.93;;;3.00;;
7835;SDS011;3963;42.658;23.298;2023-03-16T12:11:55;4.77;;;3.80;;
7835;SDS011;3963;42.658;23.298;2023-03-16T12:14:29;4.23;;;3.53;;
7835;SDS011;3963;42.658;23.298;2023-03-16T12:17:02;4.77;;;4.00;;
7835;SDS011;3963;42.658;23.298;2023-03-16T12:19:38;3.63;;;3.33;;
7835;SDS011;3963;42.658;23.298;2023-03-16T12:22:11;4.13;;;3.43;;
7835;SDS011;3963;42.658;23.298;2023-03-16T12:24:43;4.27;;;3.87;;
7835;SDS011;3963;42.658;23.298;2023-03-16T12:27:12;4.80;;;4.03;;
7835;SDS011;3963;42.658;23.298;2023-03-16T12:29:43;7.00;;;3.87;;
7835;SDS011;3963;42.658;23.298;2023-03-16T12:32:24;9.37;;;3.97;;
7835;SDS011;3963;42.658;23.298;2023-03-16T12:34:59;4.70;;;3.90;;
7835;SDS011;3963;42.658;23.298;2023-03-16T12:37:32;5.93;;;4.87;;
7835;SDS011;3963;42.658;23.298;2023-03-16T12:40:12;8.20;;;4.53;;
7835;SDS011;3963;42.658;23.298;2023-03-16T12:42:59;5.17;;;3.20;;
7835;SDS011;3963;42.658;23.298;2023-03-16T12:45:42;5.43;;;4.00;;
7835;SDS011;3963;42.658;23.298;2023-03-16T12:48:17;5.70;;;4.57;;
7835;SDS011;3963;42.658;23.298;2023-03-16T12:50:52;5.63;;;3.90;;
7835;SDS011;3963;42.658;23.298;2023-03-16T12:53:26;7.63;;;4.20;;
7835;SDS011;3963;42.658;23.298;2023-03-16T12:55:54;6.03;;;4.20;;
7835;SDS011;3963;42.658;23.298;2023-03-16T12:58:22;6.17;;;3.40;;
7835;SDS011;3963;42.658;23.298;2023-03-16T13:00:55;9.43;;;4.30;;
7835;SDS011;3963;42.658;23.298;2023-03-16T13:03:26;6.53;;;4.30;;
7835;SDS011;3963;42.658;23.298;2023-03-16T13:05:54;6.83;;;4.77;;
7835;SDS011;3963;42.658;23.298;2023-03-16T13:08:24;11.80;;;5.57;;
7835;SDS011;3963;42.658;23.298;2023-03-16T13:10:59;7.47;;;4.87;;
7835;SDS011;3963;42.658;23.298;2023-03-16T13:13:29;7.77;;;5.23;;
7835;SDS011;3963;42.658;23.298;2023-03-16T13:16:01;8.50;;;5.43;;
7835;SDS011;3963;42.658;23.298;2023-03-16T13:18:36;9.40;;;5.93;;
7835;SDS011;3963;42.658;23.298;2023-03-16T13:21:15;7.67;;;5.93;;
7835;SDS011;3963;42.658;23.298;2023-03-16T13:23:46;8.90;;;5.40;;
7835;SDS011;3963;42.658;23.298;2023-03-16T13:26:21;8.57;;;6.03;;
7835;SDS011;3963;42.658;23.298;2023-03-16T13:28:59;10.00;;;6.47;;
7835;SDS011;3963;42.658;23.298;2023-03-16T13:31:41;9.03;;;5.57;;
7835;SDS011;3963;42.658;23.298;2023-03-16T13:34:12;8.80;;;6.37;;
7835;SDS011;3963;42.658;23.298;2023-03-16T13:36:40;7.53;;;5.90;;
7835;SDS011;3963;42.658;23.298;2023-03-16T13:39:12;10.03;;;5.80;;
7835;SDS011;3963;42.658;23.298;2023-03-16T13:41:41;9.20;;;6.80;;
7835;SDS011;3963;42.658;23.298;2023-03-16T13:44:12;9.70;;;5.60;;
7835;SDS011;3963;42.658;23.298;2023-03-16T13:46:40;10.20;;;6.37;;
7835;SDS011;3963;42.658;23.298;2023-03-16T13:49:10;10.23;;;7.13;;
7835;SDS011;3963;42.658;23.298;2023-03-16T13:51:38;12.73;;;6.57;;
7835;SDS011;3963;42.658;23.298;2023-03-16T13:54:09;8.20;;;6.07;;
7835;SDS011;3963;42.658;23.298;2023-03-16T13:56:45;9.53;;;6.73;;
7835;SDS011;3963;42.658;23.298;2023-03-16T13:59:13;11.87;;;6.80;;
7835;SDS011;3963;42.658;23.298;2023-03-16T14:01:42;15.13;;;7.27;;
7835;SDS011;3963;42.658;23.298;2023-03-16T14:04:14;11.20;;;7.17;;
7835;SDS011;3963;42.658;23.298;2023-03-16T14:06:53;9.43;;;7.43;;
7835;SDS011;3963;42.658;23.298;2023-03-16T14:09:21;12.37;;;7.30;;
7835;SDS011;3963;42.658;23.298;2023-03-16T14:11:51;11.77;;;7.20;;
7835;SDS011;3963;42.658;23.298;2023-03-16T14:14:22;14.63;;;8.80;;
7835;SDS011;3963;42.658;23.298;2023-03-16T14:16:50;11.20;;;8.23;;
7835;SDS011;3963;42.658;23.298;2023-03-16T14:19:20;12.00;;;7.90;;
7835;SDS011;3963;42.658;23.298;2023-03-16T14:21:52;11.43;;;7.57;;
7835;SDS011;3963;42.658;23.298;2023-03-16T14:24:22;10.07;;;8.17;;
7835;SDS011;3963;42.658;23.298;2023-03-16T14:26:55;11.00;;;8.43;;
7835;SDS011;3963;42.658;23.298;2023-03-16T14:29:25;11.53;;;7.67;;
7835;SDS011;3963;42.658;23.298;2023-03-16T14:31:54;11.97;;;8.00;;
7835;SDS011;3963;42.658;23.298;2023-03-16T14:34:27;12.30;;;8.80;;
7835;SDS011;3963;42.658;23.298;2023-03-16T14:37:03;15.23;;;8.67;;
7835;SDS011;3963;42.658;23.298;2023-03-16T14:39:31;13.47;;;8.90;;
7835;SDS011;3963;42.658;23.298;2023-03-16T14:42:00;12.87;;;8.87;;
7835;SDS011;3963;42.658;23.298;2023-03-16T14:44:28;15.03;;;8.60;;
7835;SDS011;3963;42.658;23.298;2023-03-16T14:46:58;12.67;;;9.50;;
7835;SDS011;3963;42.658;23.298;2023-03-16T14:49:30;14.80;;;9.07;;
7835;SDS011;3963;42.658;23.298;2023-03-16T14:51:59;14.57;;;9.57;;
7835;SDS011;3963;42.658;23.298;2023-03-16T14:54:29;13.23;;;9.50;;
7835;SDS011;3963;42.658;23.298;2023-03-16T14:56:58;13.10;;;9.20;;
7835;SDS011;3963;42.658;23.298;2023-03-16T14:59:26;18.23;;;10.13;;
7835;SDS011;3963;42.658;23.298;2023-03-16T15:01:54;13.90;;;9.87;;
7835;SDS011;3963;42.658;23.298;2023-03-16T15:04:24;15.10;;;10.57;;
7835;SDS011;3963;42.658;23.298;2023-03-16T15:06:54;14.07;;;9.67;;
7835;SDS011;3963;42.658;23.298;2023-03-16T15:09:33;15.33;;;9.97;;
7835;SDS011;3963;42.658;23.298;2023-03-16T15:12:02;17.40;;;10.93;;
7835;SDS011;3963;42.658;23.298;2023-03-16T15:14:29;18.07;;;11.03;;
7835;SDS011;3963;42.658;23.298;2023-03-16T15:17:13;15.57;;;10.30;;
7835;SDS011;3963;42.658;23.298;2023-03-16T15:19:40;19.17;;;10.93;;
7835;SDS011;3963;42.658;23.298;2023-03-16T15:22:09;16.40;;;9.93;;